Time;durP1;ratioP1;P1;durP2;ratioP2;P2;SDS_P1;SDS_P2;PMS_P1;PMS_P2;Temp;Humidity;BMP_temperature;BMP_pressure;BME280_temperature;BME280_humidity;BME280_pressure;Samples;Min_cycle;Max_cycle;Signal;HPM_P1;HPM_P2
2021/03/03 00:00:17;;;;;;;12.07;6.35;;;5.50;69.50;;;;;;5011888;28;20604;-74
2021/03/03 00:02:43;;;;;;;12.57;6.72;;;5.50;69.50;;;;;;5012033;28;20065;-74
2021/03/03 00:05:09;;;;;;;12.23;6.70;;;5.60;69.40;;;;;;5009427;28;20054;-74
2021/03/03 00:07:35;;;;;;;11.93;5.85;;;5.60;69.30;;;;;;5011691;28;20026;-75
2021/03/03 00:10:02;;;;;;;11.88;6.40;;;5.60;69.30;;;;;;5011797;28;20107;-75
2021/03/03 00:12:29;;;;;;;10.90;6.00;;;5.60;69.30;;;;;;4991680;28;20026;-74
2021/03/03 00:14:55;;;;;;;13.70;6.45;;;5.60;69.30;;;;;;5011965;28;20372;-76
2021/03/03 00:17:20;;;;;;;9.15;5.50;;;5.70;69.30;;;;;;5011508;28;20030;-75
2021/03/03 00:19:46;;;;;;;12.18;6.13;;;5.70;69.30;;;;;;5011788;28;20033;-75
2021/03/03 00:22:12;;;;;;;11.30;5.78;;;5.80;69.30;;;;;;5015891;28;20025;-76
2021/03/03 00:24:38;;;;;;;12.60;5.63;;;5.80;69.20;;;;;;5015979;28;20471;-75
2021/03/03 00:27:03;;;;;;;10.02;5.85;;;5.80;69.00;;;;;;5015734;28;20400;-74
2021/03/03 00:29:29;;;;;;;9.00;5.40;;;5.90;69.10;;;;;;5015592;28;20088;-74
2021/03/03 00:31:55;;;;;;;15.95;5.80;;;5.90;68.90;;;;;;5015658;28;20030;-74
2021/03/03 00:34:21;;;;;;;11.50;6.50;;;5.90;68.70;;;;;;4997979;28;20033;-74
2021/03/03 00:36:46;;;;;;;12.38;5.80;;;5.90;68.70;;;;;;5015657;28;20451;-74
2021/03/03 00:39:12;;;;;;;11.20;5.85;;;5.90;68.70;;;;;;4997893;28;20092;-75
2021/03/03 00:41:38;;;;;;;10.15;5.70;;;5.90;68.60;;;;;;5015379;28;20037;-74
2021/03/03 00:44:03;;;;;;;8.90;5.57;;;6.00;68.70;;;;;;5015239;28;20048;-74
2021/03/03 00:46:29;;;;;;;11.40;5.65;;;5.90;68.40;;;;;;5012956;28;20026;-75
2021/03/03 00:48:55;;;;;;;12.18;5.90;;;5.90;68.30;;;;;;5015388;28;20076;-75
2021/03/03 00:51:20;;;;;;;11.07;5.50;;;5.90;68.40;;;;;;4997773;28;20041;-75
2021/03/03 00:53:46;;;;;;;9.50;5.50;;;5.90;68.40;;;;;;5015242;28;20404;-75
2021/03/03 00:56:12;;;;;;;13.52;6.20;;;5.90;68.50;;;;;;4997631;28;20526;-75
2021/03/03 00:58:38;;;;;;;11.10;5.90;;;5.90;68.40;;;;;;5015137;28;20033;-74
2021/03/03 01:01:04;;;;;;;10.70;5.88;;;5.90;68.30;;;;;;5015181;28;20034;-75
2021/03/03 01:03:30;;;;;;;11.73;5.85;;;5.80;68.30;;;;;;4994999;28;20076;-75
2021/03/03 01:05:56;;;;;;;15.63;6.05;;;5.70;68.20;;;;;;5015163;28;20478;-75
2021/03/03 01:08:21;;;;;;;12.57;6.70;;;5.70;68.20;;;;;;5014882;28;20523;-75
2021/03/03 01:10:47;;;;;;;11.07;5.75;;;5.60;68.20;;;;;;5015063;28;20038;-75
2021/03/03 01:13:13;;;;;;;13.10;6.03;;;5.50;68.20;;;;;;5015063;28;20036;-75
2021/03/03 01:15:38;;;;;;;11.55;6.20;;;5.40;68.90;;;;;;5015018;28;20034;-75
2021/03/03 01:18:04;;;;;;;14.63;6.50;;;5.30;68.50;;;;;;5014851;28;20034;-75
2021/03/03 01:20:31;;;;;;;11.18;6.20;;;5.20;68.60;;;;;;4994701;28;20030;-75
2021/03/03 01:22:58;;;;;;;13.50;6.30;;;5.10;68.80;;;;;;5014821;28;20109;-73
2021/03/03 01:25:24;;;;;;;13.20;7.07;;;5.00;69.00;;;;;;5015104;28;20041;-74
2021/03/03 01:27:50;;;;;;;14.02;7.03;;;4.90;69.10;;;;;;5012270;28;20033;-74
2021/03/03 01:30:16;;;;;;;17.05;6.95;;;4.90;69.20;;;;;;5014331;28;20396;-74
2021/03/03 01:32:42;;;;;;;13.88;7.22;;;4.80;69.40;;;;;;5013063;28;20025;-75
2021/03/03 01:35:09;;;;;;;15.93;7.20;;;4.80;69.50;;;;;;5014517;28;20018;-74
2021/03/03 01:37:35;;;;;;;16.88;7.00;;;4.70;69.70;;;;;;5014727;28;20116;-74
2021/03/03 01:40:03;;;;;;;12.13;6.68;;;4.70;69.80;;;;;;5014533;28;20026;-74
2021/03/03 01:42:29;;;;;;;13.98;6.75;;;4.60;69.80;;;;;;5014648;28;20022;-74
2021/03/03 01:44:54;;;;;;;14.98;6.82;;;4.60;70.00;;;;;;5014476;28;20470;-74
2021/03/03 01:47:20;;;;;;;15.27;6.80;;;4.60;70.20;;;;;;5014407;28;20029;-74
2021/03/03 01:49:46;;;;;;;11.35;7.07;;;4.50;70.20;;;;;;5014453;28;20452;-75
2021/03/03 01:52:13;;;;;;;12.90;6.80;;;4.50;70.30;;;;;;5013936;28;20048;-74
2021/03/03 01:54:39;;;;;;;11.98;6.35;;;4.40;70.40;;;;;;5014156;28;20396;-74
2021/03/03 01:57:06;;;;;;;16.27;7.25;;;4.40;70.50;;;;;;5014132;28;21017;-75
2021/03/03 01:59:31;;;;;;;13.05;6.95;;;4.40;70.60;;;;;;5008783;28;20153;-75
2021/03/03 02:01:57;;;;;;;14.65;6.82;;;4.40;70.70;;;;;;5014369;28;20108;-75
2021/03/03 02:04:24;;;;;;;12.55;6.43;;;4.30;70.80;;;;;;4996567;28;20034;-75
2021/03/03 02:06:52;;;;;;;12.57;6.75;;;4.30;70.90;;;;;;5014110;28;20093;-75
2021/03/03 02:09:29;;;;;;;13.18;6.22;;;4.30;71.20;;;;;;5013736;28;20050;-75
2021/03/03 02:12:13;;;;;;;14.20;7.38;;;4.30;71.10;;;;;;4994369;28;20062;-75
2021/03/03 02:14:46;;;;;;;13.73;7.35;;;4.30;71.20;;;;;;5012481;28;20053;-75
2021/03/03 02:17:12;;;;;;;13.18;7.22;;;4.20;71.20;;;;;;5011317;28;20044;-75
2021/03/03 02:19:40;;;;;;;18.10;7.32;;;4.20;71.30;;;;;;5014014;28;20033;-75
2021/03/03 02:22:19;;;;;;;16.02;7.43;;;4.20;71.40;;;;;;4995923;28;20026;-75
2021/03/03 02:24:53;;;;;;;14.63;7.07;;;4.10;71.40;;;;;;5013851;28;20026;-75
2021/03/03 02:27:22;;;;;;;13.60;7.07;;;4.10;71.50;;;;;;5013390;28;20423;-75
2021/03/03 02:29:49;;;;;;;15.18;7.45;;;4.10;71.50;;;;;;5013584;28;20101;-75
2021/03/03 02:32:17;;;;;;;16.95;7.60;;;4.10;71.60;;;;;;5013388;28;20034;-75
2021/03/03 02:34:44;;;;;;;17.33;8.38;;;4.10;71.70;;;;;;5013409;28;20041;-76
2021/03/03 02:37:13;;;;;;;14.68;8.23;;;4.00;71.70;;;;;;4995599;28;20483;-75
2021/03/03 02:39:38;;;;;;;14.95;8.27;;;4.00;71.90;;;;;;5013342;28;20018;-75
2021/03/03 02:42:07;;;;;;;18.80;8.57;;;4.00;72.00;;;;;;5013238;28;20101;-75
2021/03/03 02:44:33;;;;;;;15.38;8.07;;;3.90;71.90;;;;;;5010606;28;20033;-76
2021/03/03 02:46:59;;;;;;;17.10;7.88;;;3.90;72.00;;;;;;4995770;28;20422;-77
2021/03/03 02:49:26;;;;;;;19.38;8.55;;;3.90;72.00;;;;;;5013326;28;20022;-75
2021/03/03 02:51:51;;;;;;;19.40;8.77;;;3.90;72.10;;;;;;5010723;28;20026;-75
2021/03/03 02:54:17;;;;;;;13.73;7.63;;;3.90;72.20;;;;;;5012855;28;20052;-75
2021/03/03 02:56:44;;;;;;;18.08;8.75;;;3.90;72.20;;;;;;4995545;28;20527;-75
2021/03/03 02:59:35;;;;;;;19.20;9.25;;;3.90;72.30;;;;;;4995232;28;20026;-75
2021/03/03 03:02:04;;;;;;;17.60;9.35;;;3.80;72.30;;;;;;4995359;28;20033;-75
2021/03/03 03:04:33;;;;;;;17.70;9.23;;;3.80;72.30;;;;;;5012996;28;20108;-74
2021/03/03 03:07:05;;;;;;;17.90;9.38;;;3.80;72.40;;;;;;5013217;28;20068;-75
2021/03/03 03:09:33;;;;;;;16.75;8.68;;;3.70;72.50;;;;;;5009942;28;20029;-75
2021/03/03 03:12:00;;;;;;;20.50;8.80;;;3.70;72.60;;;;;;5013668;28;20124;-75
2021/03/03 03:14:27;;;;;;;17.17;9.10;;;3.70;72.60;;;;;;5014361;28;20380;-74
2021/03/03 03:16:56;;;;;;;19.90;9.23;;;3.70;72.70;;;;;;4996484;28;20072;-74
2021/03/03 03:19:26;;;;;;;17.92;8.98;;;3.70;72.70;;;;;;5013742;28;20022;-75
2021/03/03 03:21:53;;;;;;;16.95;9.05;;;3.70;72.80;;;;;;5012489;28;20018;-74
2021/03/03 03:24:21;;;;;;;18.02;9.07;;;3.70;72.90;;;;;;5012614;28;20022;-74
2021/03/03 03:26:48;;;;;;;16.38;8.63;;;3.60;72.80;;;;;;5009812;28;20049;-74
2021/03/03 03:29:15;;;;;;;17.15;8.50;;;3.60;73.00;;;;;;5012403;28;20029;-74
2021/03/03 03:31:44;;;;;;;19.13;9.30;;;3.60;73.00;;;;;;5012446;28;20037;-74
2021/03/03 03:34:12;;;;;;;15.25;8.20;;;3.60;73.10;;;;;;4992672;28;20048;-75
2021/03/03 03:36:39;;;;;;;17.25;8.75;;;3.60;73.10;;;;;;4994922;28;20021;-73
2021/03/03 03:39:08;;;;;;;18.70;8.70;;;3.60;73.20;;;;;;5012279;28;20029;-74
2021/03/03 03:41:35;;;;;;;17.10;8.45;;;3.60;73.20;;;;;;5012325;28;20036;-74
2021/03/03 03:44:02;;;;;;;21.17;8.80;;;3.60;73.30;;;;;;5012334;28;20041;-74
2021/03/03 03:46:28;;;;;;;16.15;8.10;;;3.60;73.30;;;;;;5009861;28;20044;-74
2021/03/03 03:48:55;;;;;;;11.60;7.15;;;3.60;73.30;;;;;;5012702;28;20090;-74
2021/03/03 03:51:22;;;;;;;15.70;7.28;;;3.60;73.30;;;;;;4994454;28;20116;-74
2021/03/03 03:53:48;;;;;;;14.10;7.20;;;3.60;73.40;;;;;;5012501;28;20096;-74
2021/03/03 03:56:14;;;;;;;15.57;7.13;;;3.60;73.40;;;;;;5011435;28;20403;-74
2021/03/03 03:58:39;;;;;;;11.63;5.80;;;3.60;73.40;;;;;;5012228;28;20030;-75
2021/03/03 04:01:05;;;;;;;14.63;6.85;;;3.50;73.50;;;;;;5012134;28;20026;-75
2021/03/03 04:03:34;;;;;;;12.45;6.97;;;3.50;73.50;;;;;;5011802;28;20022;-75
2021/03/03 04:06:00;;;;;;;14.98;7.20;;;3.60;73.60;;;;;;5011849;28;20465;-76
2021/03/03 04:08:26;;;;;;;18.10;7.50;;;3.60;73.50;;;;;;4994508;28;20105;-73
2021/03/03 04:10:52;;;;;;;16.00;7.53;;;3.60;73.50;;;;;;4993653;28;20569;-74
2021/03/03 04:13:19;;;;;;;11.98;6.57;;;3.60;73.50;;;;;;5012169;28;20026;-74
2021/03/03 04:15:45;;;;;;;19.33;7.45;;;3.60;73.60;;;;;;5011958;28;20021;-75
2021/03/03 04:18:12;;;;;;;14.57;7.13;;;3.50;73.60;;;;;;5011707;28;20114;-75
2021/03/03 04:20:41;;;;;;;13.07;6.72;;;3.50;73.60;;;;;;4994418;28;20491;-75
2021/03/03 04:23:10;;;;;;;14.10;6.75;;;3.50;73.60;;;;;;5011891;28;20048;-75
2021/03/03 04:25:36;;;;;;;14.45;6.70;;;3.50;73.60;;;;;;4994338;28;20384;-73
2021/03/03 04:28:06;;;;;;;17.15;6.78;;;3.60;73.70;;;;;;5011805;28;20095;-75
2021/03/03 04:30:33;;;;;;;13.90;6.72;;;3.50;73.60;;;;;;5010029;28;20030;-74
2021/03/03 04:33:00;;;;;;;11.05;6.00;;;3.50;73.60;;;;;;5012263;28;20028;-74
2021/03/03 04:35:26;;;;;;;15.30;7.45;;;3.50;73.50;;;;;;5011870;28;20034;-75
2021/03/03 04:37:52;;;;;;;14.95;7.18;;;3.50;73.60;;;;;;5011857;28;20153;-75
2021/03/03 04:40:18;;;;;;;15.07;7.10;;;3.60;73.70;;;;;;5011841;28;20088;-75
2021/03/03 04:42:44;;;;;;;12.07;6.78;;;3.60;73.70;;;;;;5011838;28;20033;-74
2021/03/03 04:45:11;;;;;;;17.67;7.43;;;3.60;73.70;;;;;;5012760;28;20112;-75
2021/03/03 04:47:37;;;;;;;15.38;6.80;;;3.60;73.70;;;;;;5013228;28;20025;-75
2021/03/03 04:50:05;;;;;;;16.25;7.13;;;3.60;73.70;;;;;;5011794;28;20026;-75
2021/03/03 04:52:31;;;;;;;13.13;6.75;;;3.60;73.60;;;;;;5011384;28;20124;-75
2021/03/03 04:54:56;;;;;;;16.58;7.15;;;3.60;73.70;;;;;;5012930;28;20050;-75
2021/03/03 04:57:22;;;;;;;15.88;7.25;;;3.60;73.70;;;;;;5013279;28;20034;-74
2021/03/03 04:59:48;;;;;;;13.57;6.80;;;3.70;73.70;;;;;;4995237;28;20026;-75
2021/03/03 05:02:13;;;;;;;15.52;7.45;;;3.70;73.70;;;;;;5012969;28;20034;-75
2021/03/03 05:04:39;;;;;;;13.27;6.95;;;3.70;73.60;;;;;;5012847;28;20056;-75
2021/03/03 05:07:05;;;;;;;15.77;7.55;;;3.80;73.50;;;;;;5014350;28;20026;-74
2021/03/03 05:09:30;;;;;;;15.65;7.25;;;3.80;73.60;;;;;;5016401;28;20057;-74
2021/03/03 05:11:56;;;;;;;19.02;7.90;;;3.80;73.50;;;;;;5016220;28;20088;-73
2021/03/03 05:14:22;;;;;;;15.52;8.00;;;3.80;74.10;;;;;;5016088;28;20040;-74
2021/03/03 05:16:48;;;;;;;15.32;8.07;;;3.90;73.40;;;;;;5016143;28;20080;-75
2021/03/03 05:19:13;;;;;;;15.23;7.75;;;3.90;73.30;;;;;;5015870;28;20026;-74
2021/03/03 05:21:39;;;;;;;15.00;7.88;;;3.90;73.80;;;;;;5016209;28;20563;-74
2021/03/03 05:24:06;;;;;;;19.73;7.75;;;3.90;73.10;;;;;;5015753;28;20136;-75
2021/03/03 05:26:31;;;;;;;11.13;6.40;;;4.00;73.20;;;;;;5016428;28;20169;-74
2021/03/03 05:28:57;;;;;;;13.52;6.80;;;4.00;73.20;;;;;;5015764;28;20101;-74
2021/03/03 05:31:23;;;;;;;17.88;7.60;;;4.10;73.20;;;;;;5015542;28;20056;-74
2021/03/03 05:33:49;;;;;;;15.35;7.45;;;4.10;73.10;;;;;;5015895;28;20026;-75
2021/03/03 05:36:15;;;;;;;13.57;7.00;;;4.20;73.00;;;;;;5015314;28;20476;-75
2021/03/03 05:38:41;;;;;;;18.40;7.15;;;4.30;72.90;;;;;;5015603;28;20072;-74
2021/03/03 05:41:08;;;;;;;13.98;7.35;;;4.30;72.90;;;;;;5015455;28;20034;-74
2021/03/03 05:43:35;;;;;;;11.65;6.22;;;4.40;72.60;;;;;;4998239;28;20113;-75
2021/03/03 05:46:03;;;;;;;12.18;6.28;;;4.40;72.50;;;;;;4998425;28;20033;-75
2021/03/03 05:49:00;;;;;;;11.23;6.10;;;4.50;72.20;;;;;;5015174;28;20400;-75
2021/03/03 05:51:28;;;;;;;10.88;5.72;;;4.50;72.10;;;;;;5011182;28;20416;-74
2021/03/03 05:53:54;;;;;;;11.07;5.78;;;4.60;72.10;;;;;;5015226;28;20042;-74
2021/03/03 05:56:24;;;;;;;11.32;5.78;;;4.70;72.00;;;;;;5015708;28;20415;-74
2021/03/03 05:58:50;;;;;;;10.02;5.53;;;4.70;71.90;;;;;;4998365;28;20499;-74
2021/03/03 06:01:17;;;;;;;10.95;5.10;;;4.80;71.90;;;;;;5014942;28;20037;-75
2021/03/03 06:03:43;;;;;;;10.95;5.65;;;4.80;71.50;;;;;;5015153;28;20041;-74
2021/03/03 06:06:11;;;;;;;13.63;5.28;;;4.90;71.50;;;;;;5015446;28;20384;-74
2021/03/03 06:08:37;;;;;;;10.68;5.30;;;4.90;71.50;;;;;;5015216;28;20086;-74
2021/03/03 06:11:04;;;;;;;10.00;5.25;;;5.10;71.20;;;;;;4997487;28;20129;-74
2021/03/03 06:13:30;;;;;;;9.02;4.88;;;5.10;70.90;;;;;;5014973;28;20125;-75
2021/03/03 06:15:56;;;;;;;8.20;4.95;;;5.10;70.70;;;;;;5014773;28;20022;-75
2021/03/03 06:18:24;;;;;;;9.35;4.78;;;5.20;70.70;;;;;;5013969;28;20033;-76
2021/03/03 06:20:51;;;;;;;8.75;5.05;;;5.20;70.60;;;;;;5015030;28;20045;-76
2021/03/03 06:23:21;;;;;;;7.72;4.78;;;5.20;70.50;;;;;;4981292;28;20033;-76
2021/03/03 06:25:57;;;;;;;10.25;4.57;;;5.30;70.20;;;;;;5014820;28;20424;-76
2021/03/03 06:28:32;;;;;;;8.07;4.93;;;5.40;70.20;;;;;;5014829;28;20049;-76
2021/03/03 06:30:58;;;;;;;10.55;5.07;;;5.40;70.00;;;;;;5014852;28;20040;-75
2021/03/03 06:33:25;;;;;;;7.65;4.68;;;5.50;69.90;;;;;;5014689;28;20026;-75
2021/03/03 06:35:52;;;;;;;10.57;4.85;;;5.50;69.70;;;;;;5014671;28;20030;-75
2021/03/03 06:38:31;;;;;;;8.45;4.50;;;5.60;69.50;;;;;;5014622;28;20022;-75
2021/03/03 06:40:59;;;;;;;9.40;4.53;;;5.60;69.00;;;;;;4997140;28;20030;-76
2021/03/03 06:43:29;;;;;;;10.90;5.72;;;5.60;69.10;;;;;;5014128;28;20356;-76
2021/03/03 06:45:56;;;;;;;7.28;4.15;;;5.70;69.20;;;;;;5014060;28;20018;-76
2021/03/03 06:48:41;;;;;;;6.18;4.00;;;5.80;69.00;;;;;;5014381;28;20049;-76
2021/03/03 06:51:30;;;;;;;7.07;4.35;;;5.80;68.60;;;;;;5014472;28;20033;-77
2021/03/03 06:54:01;;;;;;;11.93;4.03;;;5.90;68.30;;;;;;5014404;28;20045;-76
2021/03/03 06:56:41;;;;;;;9.77;4.85;;;5.90;68.20;;;;;;5014411;28;20058;-77
2021/03/03 06:59:30;;;;;;;9.52;4.55;;;5.90;68.00;;;;;;5014277;28;20057;-77
2021/03/03 07:01:57;;;;;;;6.82;4.78;;;6.00;67.90;;;;;;5014133;28;20476;-76
2021/03/03 07:04:26;;;;;;;10.68;4.78;;;6.00;67.70;;;;;;5014607;28;20033;-75
2021/03/03 07:06:54;;;;;;;10.93;4.72;;;6.10;67.80;;;;;;5014403;28;20062;-76
2021/03/03 07:09:24;;;;;;;9.98;4.75;;;6.10;67.60;;;;;;5014097;28;20087;-76
2021/03/03 07:12:01;;;;;;;8.57;4.70;;;6.20;67.50;;;;;;5013625;28;20038;-77
2021/03/03 07:14:29;;;;;;;10.35;5.35;;;6.20;67.10;;;;;;4996503;28;20113;-76
2021/03/03 07:17:22;;;;;;;11.52;5.22;;;6.30;67.00;;;;;;5013960;28;20061;-77
2021/03/03 07:20:01;;;;;;;9.63;4.55;;;6.40;67.00;;;;;;5014905;28;20026;-76
2021/03/03 07:22:33;;;;;;;8.80;4.82;;;6.50;66.80;;;;;;5013761;28;20472;-75
2021/03/03 07:25:10;;;;;;;8.95;4.57;;;6.60;66.60;;;;;;5013818;28;20540;-74
2021/03/03 07:27:38;;;;;;;8.85;5.00;;;6.80;66.20;;;;;;5014256;28;20025;-76
2021/03/03 07:30:13;;;;;;;9.68;4.82;;;6.90;65.80;;;;;;5013433;28;20029;-77
2021/03/03 07:32:39;;;;;;;11.35;4.63;;;7.10;65.40;;;;;;5014303;28;20022;-76
2021/03/03 07:35:06;;;;;;;7.57;4.70;;;7.20;65.30;;;;;;4996301;28;20449;-76
2021/03/03 07:37:38;;;;;;;11.15;4.68;;;7.30;65.00;;;;;;5013676;28;20032;-76
2021/03/03 07:40:09;;;;;;;9.60;5.07;;;7.50;64.30;;;;;;5013550;28;20361;-76
2021/03/03 07:42:36;;;;;;;11.00;4.70;;;7.60;64.00;;;;;;5013385;28;20030;-78
2021/03/03 07:45:11;;;;;;;9.63;4.50;;;7.80;64.20;;;;;;5013084;28;20468;-76
2021/03/03 07:47:39;;;;;;;7.57;4.47;;;8.00;63.60;;;;;;5013308;28;20068;-76
2021/03/03 07:50:16;;;;;;;10.45;5.13;;;8.20;63.20;;;;;;5013437;28;20034;-76
2021/03/03 07:52:48;;;;;;;14.00;5.07;;;8.30;62.40;;;;;;4996698;28;20022;-75
2021/03/03 07:55:14;;;;;;;17.45;7.15;;;8.50;62.00;;;;;;5013833;28;20073;-77
2021/03/03 07:58:00;;;;;;;8.50;4.57;;;8.60;61.90;;;;;;5013296;28;20369;-76
2021/03/03 08:00:32;;;;;;;5.78;3.70;;;8.90;61.10;;;;;;5013592;28;20037;-76
2021/03/03 08:02:58;;;;;;;7.40;4.07;;;9.10;60.80;;;;;;5013529;28;20026;-76
2021/03/03 08:05:39;;;;;;;8.35;4.05;;;9.30;60.30;;;;;;5013244;28;20058;-76
2021/03/03 08:08:10;;;;;;;6.07;3.80;;;9.40;59.30;;;;;;5013293;28;20022;-76
2021/03/03 08:10:40;;;;;;;9.45;4.30;;;9.50;59.20;;;;;;5012442;28;20037;-75
2021/03/03 08:13:10;;;;;;;7.20;3.78;;;9.70;59.00;;;;;;5013084;28;20472;-76
2021/03/03 08:15:41;;;;;;;7.15;4.00;;;9.90;58.60;;;;;;5013038;28;20030;-78
2021/03/03 08:18:24;;;;;;;6.85;4.18;;;10.20;58.40;;;;;;5013341;28;20026;-76
2021/03/03 08:20:52;;;;;;;8.73;4.93;;;10.80;57.70;;;;;;5013150;28;20062;-76
2021/03/03 08:23:32;;;;;;;6.53;4.53;;;11.30;57.30;;;;;;5012756;28;20500;-76
2021/03/03 08:26:15;;;;;;;7.18;3.55;;;11.80;56.30;;;;;;5013134;28;20088;-76
2021/03/03 08:29:04;;;;;;;6.47;3.92;;;12.50;56.70;;;;;;5013199;28;20388;-76
2021/03/03 08:31:30;;;;;;;8.60;4.82;;;13.30;56.80;;;;;;5002300;28;20142;-76
2021/03/03 08:33:58;;;;;;;9.23;5.28;;;14.30;56.50;;;;;;5012709;28;20034;-76
2021/03/03 08:38:55;;;;;;;8.38;5.88;;;16.20;52.80;;;;;;5013084;28;20395;-75
2021/03/03 08:41:26;;;;;;;7.50;5.10;;;17.00;50.10;;;;;;5013247;28;20030;-76
2021/03/03 08:44:11;;;;;;;6.38;4.72;;;17.90;48.90;;;;;;5016909;28;20069;-76
2021/03/03 08:46:44;;;;;;;6.30;3.78;;;18.70;46.40;;;;;;5000140;28;20033;-75
2021/03/03 08:49:10;;;;;;;5.15;3.55;;;19.40;45.20;;;;;;5016728;28;20069;-76
2021/03/03 08:51:48;;;;;;;5.50;3.72;;;20.10;44.30;;;;;;5016740;28;20119;-75
2021/03/03 08:54:35;;;;;;;4.93;3.55;;;20.60;43.00;;;;;;5016659;28;20100;-76
2021/03/03 08:57:01;;;;;;;4.55;3.58;;;21.30;41.00;;;;;;5016673;28;20017;-75
2021/03/03 08:59:42;;;;;;;5.72;3.72;;;21.90;40.60;;;;;;5016061;28;20413;-79
2021/03/03 09:02:08;;;;;;;5.40;3.58;;;22.30;38.80;;;;;;5016675;28;20026;-75
2021/03/03 09:04:34;;;;;;;8.13;4.28;;;22.80;38.50;;;;;;5016029;28;20476;-76
2021/03/03 09:07:08;;;;;;;5.88;3.97;;;23.20;37.50;;;;;;5016397;28;20030;-76
2021/03/03 09:09:41;;;;;;;6.95;3.75;;;23.50;36.30;;;;;;5016151;28;20033;-77
2021/03/03 09:12:10;;;;;;;5.97;3.67;;;24.00;36.00;;;;;;5016250;28;20046;-76
2021/03/03 09:14:37;;;;;;;4.35;3.50;;;24.40;35.50;;;;;;5016290;28;20051;-76
2021/03/03 09:17:08;;;;;;;5.75;4.03;;;24.70;34.70;;;;;;5016306;28;20018;-76
2021/03/03 09:19:36;;;;;;;4.53;3.53;;;25.10;33.70;;;;;;4998724;28;20125;-76
2021/03/03 09:22:17;;;;;;;5.05;3.72;;;25.50;33.60;;;;;;5016062;28;20026;-76
2021/03/03 09:24:53;;;;;;;4.53;3.60;;;25.70;32.30;;;;;;5015932;28;20533;-76
2021/03/03 09:27:20;;;;;;;5.43;3.67;;;26.00;32.40;;;;;;4998513;28;20375;-76
2021/03/03 09:29:48;;;;;;;5.32;3.30;;;26.30;32.20;;;;;;5016021;28;20025;-74
2021/03/03 09:32:22;;;;;;;5.10;3.70;;;26.60;32.40;;;;;;5016014;28;20490;-75
2021/03/03 09:34:53;;;;;;;4.18;3.35;;;26.80;31.20;;;;;;5016168;28;20398;-76
2021/03/03 09:37:20;;;;;;;5.38;3.65;;;27.10;30.80;;;;;;5016169;28;20049;-76
2021/03/03 09:39:57;;;;;;;6.28;3.63;;;27.30;30.50;;;;;;5015823;28;20026;-76
2021/03/03 09:42:24;;;;;;;5.47;3.78;;;27.60;29.90;;;;;;5016065;28;20082;-77
2021/03/03 09:44:51;;;;;;;5.40;3.95;;;28.00;30.00;;;;;;5015611;28;20128;-75
2021/03/03 09:47:35;;;;;;;5.10;3.92;;;28.30;29.90;;;;;;5015676;28;20030;-76
2021/03/03 09:50:23;;;;;;;5.82;4.70;;;28.60;29.20;;;;;;4998260;28;20025;-75
2021/03/03 09:52:57;;;;;;;6.22;3.90;;;28.90;29.30;;;;;;5014443;28;20042;-75
2021/03/03 09:55:27;;;;;;;4.28;3.80;;;29.00;28.80;;;;;;4997443;28;20073;-77
2021/03/03 09:57:54;;;;;;;6.40;4.00;;;29.20;28.80;;;;;;5015442;28;20040;-76
2021/03/03 10:00:30;;;;;;;4.25;3.28;;;29.40;28.60;;;;;;5015448;28;20108;-75
2021/03/03 10:02:59;;;;;;;5.70;3.67;;;29.50;28.30;;;;;;5015813;28;20025;-76
2021/03/03 10:05:30;;;;;;;5.22;3.42;;;29.60;28.20;;;;;;5015089;28;20384;-76
2021/03/03 10:08:02;;;;;;;5.35;3.50;;;29.70;27.90;;;;;;5015187;28;20029;-76
2021/03/03 10:10:33;;;;;;;6.53;4.00;;;29.80;27.80;;;;;;5015404;28;20034;-77
2021/03/03 10:12:59;;;;;;;4.95;3.60;;;30.00;27.60;;;;;;5014978;28;20033;-76
2021/03/03 10:15:36;;;;;;;4.45;3.50;;;30.20;27.60;;;;;;4997693;28;20380;-76
2021/03/03 10:18:09;;;;;;;4.93;3.72;;;30.20;27.30;;;;;;5014891;28;20022;-77
2021/03/03 10:20:51;;;;;;;5.75;3.88;;;30.50;27.50;;;;;;5015184;28;20037;-76
2021/03/03 10:23:23;;;;;;;5.28;3.83;;;30.70;27.10;;;;;;5014997;28;20065;-75
2021/03/03 10:25:54;;;;;;;4.80;3.63;;;30.90;27.60;;;;;;5014777;28;20030;-76
2021/03/03 10:28:22;;;;;;;5.03;3.55;;;31.10;26.90;;;;;;5014702;28;20030;-76
2021/03/03 10:30:50;;;;;;;5.57;3.45;;;31.30;26.80;;;;;;5015156;28;20034;-76
2021/03/03 10:33:28;;;;;;;4.55;3.33;;;31.40;26.70;;;;;;5015083;28;20091;-75
2021/03/03 10:35:55;;;;;;;5.95;3.10;;;31.60;26.40;;;;;;5014628;28;20116;-75
2021/03/03 10:38:23;;;;;;;3.65;3.33;;;31.80;26.50;;;;;;4996673;28;20025;-75
2021/03/03 10:40:54;;;;;;;4.60;3.53;;;31.90;26.30;;;;;;5014373;28;20030;-76
2021/03/03 10:43:23;;;;;;;4.68;3.58;;;32.00;26.00;;;;;;5014380;28;20026;-77
2021/03/03 10:46:07;;;;;;;4.05;3.50;;;32.10;26.10;;;;;;5014382;28;20034;-76
2021/03/03 10:48:33;;;;;;;4.43;3.35;;;32.30;26.00;;;;;;5014628;28;20034;-75
2021/03/03 10:51:01;;;;;;;3.80;3.20;;;32.40;25.90;;;;;;5014223;28;20534;-75
2021/03/03 10:53:57;;;;;;;7.47;3.90;;;32.30;26.30;;;;;;5013545;28;20022;-77
2021/03/03 10:56:24;;;;;;;4.20;3.17;;;32.50;25.70;;;;;;5013998;28;20095;-77
2021/03/03 10:58:55;;;;;;;5.00;3.38;;;32.60;25.70;;;;;;5013959;28;20080;-76
2021/03/03 11:01:21;;;;;;;7.22;3.40;;;32.70;25.50;;;;;;4996379;28;20034;-75
2021/03/03 11:03:59;;;;;;;5.45;3.55;;;32.50;25.30;;;;;;5013712;28;20030;-76
2021/03/03 11:06:29;;;;;;;4.35;3.03;;;32.00;25.20;;;;;;4996342;28;20034;-79
2021/03/03 11:08:55;;;;;;;5.15;3.47;;;31.80;25.30;;;;;;5014181;28;20033;-76
2021/03/03 11:11:21;;;;;;;4.15;3.38;;;31.90;25.50;;;;;;5014125;28;20104;-76
2021/03/03 11:13:47;;;;;;;3.47;3.00;;;32.10;25.30;;;;;;5014430;28;20100;-76
2021/03/03 11:16:13;;;;;;;3.70;3.20;;;32.00;25.30;;;;;;5014012;28;20113;-77
2021/03/03 11:18:39;;;;;;;4.10;3.25;;;32.10;25.40;;;;;;5013751;28;20086;-76
2021/03/03 11:21:05;;;;;;;6.00;4.85;;;32.30;25.30;;;;;;5013574;28;20128;-76
2021/03/03 11:23:31;;;;;;;6.13;5.22;;;32.70;25.30;;;;;;4996316;28;20068;-76
2021/03/03 11:25:57;;;;;;;4.78;3.75;;;32.80;25.10;;;;;;5013730;28;20026;-76
2021/03/03 11:28:24;;;;;;;3.80;3.40;;;33.10;25.10;;;;;;5012376;28;20037;-75
2021/03/03 11:30:50;;;;;;;5.78;3.40;;;33.30;24.90;;;;;;5012251;28;20550;-76
2021/03/03 11:33:16;;;;;;;3.70;3.00;;;33.20;24.60;;;;;;4994928;28;20397;-76
2021/03/03 11:35:42;;;;;;;3.60;3.00;;;32.60;24.50;;;;;;5012462;28;20084;-77
2021/03/03 11:38:08;;;;;;;6.05;3.78;;;32.10;24.40;;;;;;5012368;28;20022;-76
2021/03/03 11:40:35;;;;;;;5.95;3.75;;;31.30;24.30;;;;;;5012307;28;20034;-76
2021/03/03 11:43:01;;;;;;;4.82;3.92;;;30.20;24.50;;;;;;4994569;28;20109;-77
2021/03/03 11:45:26;;;;;;;5.53;4.68;;;30.30;25.00;;;;;;5012133;28;20097;-77
2021/03/03 11:47:52;;;;;;;6.88;5.20;;;30.50;24.90;;;;;;5012262;28;20022;-81
2021/03/03 11:50:19;;;;;;;7.10;5.07;;;29.90;24.90;;;;;;5011750;28;20018;-76
2021/03/03 11:52:45;;;;;;;7.07;5.28;;;30.00;25.30;;;;;;4991700;28;20495;-78
2021/03/03 11:55:11;;;;;;;7.47;5.50;;;30.40;25.40;;;;;;4994073;28;20050;-76
2021/03/03 11:57:37;;;;;;;6.68;5.75;;;30.80;25.40;;;;;;4993392;28;20023;-77
2021/03/03 12:00:07;;;;;;;6.93;4.90;;;31.30;25.20;;;;;;4993865;28;20053;-76
2021/03/03 12:02:32;;;;;;;8.77;5.00;;;31.60;25.00;;;;;;4976869;28;20027;-77
2021/03/03 12:04:58;;;;;;;5.82;5.20;;;31.60;24.70;;;;;;4993626;28;20092;-76
2021/03/03 12:07:24;;;;;;;13.15;7.97;;;31.50;24.60;;;;;;4993295;28;20029;-76
2021/03/03 12:09:49;;;;;;;10.27;6.57;;;31.10;24.50;;;;;;4976183;28;20104;-77
2021/03/03 12:12:15;;;;;;;8.70;6.78;;;31.00;24.70;;;;;;4993596;28;20053;-77
2021/03/03 12:14:41;;;;;;;8.32;5.20;;;31.10;24.90;;;;;;4993385;28;20338;-77
2021/03/03 12:17:07;;;;;;;7.00;5.43;;;31.40;25.00;;;;;;4992738;28;20110;-76
2021/03/03 12:19:33;;;;;;;7.38;5.55;;;31.70;24.80;;;;;;4993578;28;20550;-77
2021/03/03 12:21:58;;;;;;;8.13;5.85;;;32.00;24.70;;;;;;4993590;28;20022;-77
2021/03/03 12:24:25;;;;;;;5.82;5.20;;;32.30;24.60;;;;;;4993375;28;20081;-76
2021/03/03 12:26:52;;;;;;;6.75;5.80;;;32.60;24.40;;;;;;4993723;28;20026;-76
2021/03/03 12:29:18;;;;;;;6.65;5.22;;;32.50;24.10;;;;;;4993568;28;20033;-78
2021/03/03 12:31:44;;;;;;;6.65;4.90;;;32.10;23.90;;;;;;4993190;28;20042;-76
2021/03/03 12:34:09;;;;;;;7.35;5.95;;;31.60;24.00;;;;;;4993469;28;20113;-76
2021/03/03 12:36:35;;;;;;;8.45;5.32;;;31.00;24.70;;;;;;4993163;28;20432;-76
2021/03/03 12:39:01;;;;;;;6.32;5.45;;;30.70;24.40;;;;;;4993537;28;20031;-76
2021/03/03 12:41:27;;;;;;;8.77;5.97;;;30.10;24.30;;;;;;4993462;28;20034;-77
2021/03/03 12:43:52;;;;;;;12.82;7.57;;;29.60;24.60;;;;;;4993464;28;20365;-76
2021/03/03 12:46:18;;;;;;;8.50;5.70;;;29.70;24.90;;;;;;5009100;28;20168;-76
2021/03/03 12:48:44;;;;;;;12.00;8.20;;;30.00;24.90;;;;;;5012768;28;20105;-76
2021/03/03 12:51:09;;;;;;;7.47;5.63;;;29.90;24.60;;;;;;5013170;28;20045;-78
2021/03/03 12:53:35;;;;;;;8.52;5.25;;;29.70;24.60;;;;;;5010731;28;20037;-78
2021/03/03 12:56:01;;;;;;;8.52;6.82;;;29.60;24.60;;;;;;5012912;28;20022;-76
2021/03/03 12:58:27;;;;;;;7.97;5.25;;;29.30;24.60;;;;;;4995119;28;20029;-77